createdAt,value
2022-10-05T00:00:00.134Z,49.34
2022-10-05T00:02:27.129Z,49.21
2022-10-05T00:04:57.020Z,49.19
2022-10-05T00:07:24.695Z,49.30
2022-10-05T00:09:58.703Z,49.28
2022-10-05T00:12:27.014Z,49.30
2022-10-05T00:14:57.965Z,49.33
2022-10-05T00:17:27.360Z,49.21
2022-10-05T00:19:54.175Z,49.30
2022-10-05T00:22:29.897Z,49.22
2022-10-05T00:24:58.925Z,49.14
2022-10-05T00:27:37.515Z,49.32
2022-10-05T00:30:19.712Z,49.22
2022-10-05T00:32:47.119Z,49.04
2022-10-05T00:35:15.641Z,49.27
2022-10-05T00:37:42.245Z,48.96
2022-10-05T00:40:41.725Z,49.20
2022-10-05T00:43:40.161Z,49.17
2022-10-05T00:46:16.059Z,49.25
2022-10-05T00:48:55.376Z,49.12
2022-10-05T00:51:28.388Z,49.22
2022-10-05T00:53:54.774Z,49.07
2022-10-05T00:56:36.157Z,49.19
2022-10-05T00:59:08.633Z,48.99
2022-10-05T01:01:48.472Z,49.00
2022-10-05T01:04:54.104Z,49.21
2022-10-05T01:07:30.394Z,49.06
2022-10-05T01:10:11.632Z,49.15
2022-10-05T01:13:19.272Z,48.99
2022-10-05T01:15:55.569Z,48.97
2022-10-05T01:18:39.981Z,49.02
2022-10-05T01:21:11.774Z,48.92
2022-10-05T01:23:41.443Z,48.92
2022-10-05T01:26:16.179Z,48.97
2022-10-05T01:28:52.386Z,49.00
2022-10-05T01:31:37.742Z,48.90
2022-10-05T01:34:16.908Z,48.99
2022-10-05T01:37:03.936Z,48.97
2022-10-05T01:39:39.121Z,48.87
2022-10-05T01:42:29.893Z,48.85
2022-10-05T01:45:31.602Z,49.00
2022-10-05T01:48:00.933Z,48.83
2022-10-05T01:50:59.301Z,48.85
2022-10-05T01:54:06.762Z,48.84
2022-10-05T01:56:43.514Z,48.88
2022-10-05T01:59:19.318Z,48.79
2022-10-05T02:02:02.004Z,48.69
2022-10-05T02:05:00.926Z,48.80
2022-10-05T02:07:28.953Z,48.66
2022-10-05T02:10:00.709Z,48.72
2022-10-05T02:12:31.433Z,48.68
2022-10-05T02:15:08.121Z,48.74
2022-10-05T02:17:47.393Z,48.44
2022-10-05T02:20:22.515Z,48.82
2022-10-05T02:22:55.947Z,48.84
2022-10-05T02:25:27.882Z,48.73
2022-10-05T02:28:24.965Z,48.76
2022-10-05T02:30:56.780Z,48.74
2022-10-05T02:33:28.944Z,48.74
2022-10-05T02:36:00.268Z,48.69
2022-10-05T02:38:39.021Z,48.67
2022-10-05T02:41:26.719Z,48.71
2022-10-05T02:44:04.918Z,48.70
2022-10-05T02:47:10.161Z,48.62
2022-10-05T02:49:47.866Z,48.69
2022-10-05T02:52:33.740Z,48.48
2022-10-05T02:55:17.885Z,48.50
2022-10-05T02:57:59.886Z,48.59
2022-10-05T03:00:32.232Z,48.82
2022-10-05T03:03:23.877Z,48.61
2022-10-05T03:06:15.073Z,48.49
2022-10-05T03:08:47.138Z,48.68
2022-10-05T03:11:30.728Z,48.55
2022-10-05T03:14:03.296Z,48.60
2022-10-05T03:16:51.612Z,48.53
2022-10-05T03:19:55.000Z,48.53
2022-10-05T03:23:03.549Z,48.47
2022-10-05T03:25:48.169Z,48.35
2022-10-05T03:28:23.663Z,48.41
2022-10-05T03:31:02.987Z,48.55
2022-10-05T03:33:40.697Z,48.43
2022-10-05T03:36:25.152Z,48.38
2022-10-05T03:39:25.415Z,48.50
2022-10-05T03:41:57.724Z,48.36
2022-10-05T03:44:40.973Z,48.41
2022-10-05T03:47:10.409Z,48.51
2022-10-05T03:50:16.136Z,48.41
2022-10-05T03:52:54.816Z,48.36
2022-10-05T03:55:36.077Z,48.37
2022-10-05T03:58:10.570Z,48.19
2022-10-05T04:00:39.017Z,48.36
2022-10-05T04:03:15.729Z,48.37
2022-10-05T04:05:48.815Z,48.20
2022-10-05T04:08:20.973Z,48.35
2022-10-05T04:10:56.047Z,48.18
2022-10-05T04:13:36.708Z,48.20
2022-10-05T04:16:23.869Z,48.14
2022-10-05T04:19:01.377Z,48.39
2022-10-05T04:21:36.107Z,48.11
2022-10-05T04:24:11.513Z,48.44
2022-10-05T04:26:49.711Z,48.10
2022-10-05T04:29:29.220Z,48.27
2022-10-05T04:32:16.140Z,48.20
2022-10-05T04:35:10.366Z,48.00
2022-10-05T04:37:53.613Z,48.14
2022-10-05T04:40:35.464Z,48.08
2022-10-05T04:43:13.412Z,48.11
2022-10-05T04:46:08.190Z,48.17
2022-10-05T04:48:46.612Z,48.13
2022-10-05T04:51:16.016Z,48.18
2022-10-05T04:53:58.657Z,48.14
2022-10-05T04:56:25.056Z,48.04
2022-10-05T04:59:29.109Z,48.16
2022-10-05T05:02:11.360Z,48.19
2022-10-05T05:04:51.982Z,48.75
2022-10-05T05:07:39.781Z,49.65
2022-10-05T05:10:24.480Z,49.45
2022-10-05T05:13:20.652Z,49.18
2022-10-05T05:16:00.920Z,49.22
2022-10-05T05:18:46.721Z,48.88
2022-10-05T05:21:28.571Z,48.93
2022-10-05T05:24:02.656Z,48.68
2022-10-05T05:27:10.624Z,48.74
2022-10-05T05:30:02.662Z,48.62
2022-10-05T05:33:00.040Z,48.61
2022-10-05T05:35:45.174Z,48.48
2022-10-05T05:38:26.953Z,48.47
2022-10-05T05:41:03.205Z,48.28
2022-10-05T05:43:38.055Z,48.35
2022-10-05T05:46:13.709Z,48.34
2022-10-05T05:48:43.656Z,48.27
2022-10-05T05:51:16.267Z,48.18
2022-10-05T05:53:45.788Z,48.14
2022-10-05T05:56:14.853Z,48.34
2022-10-05T05:58:52.222Z,48.27
2022-10-05T06:01:42.034Z,48.27
2022-10-05T06:04:15.914Z,48.12
2022-10-05T06:06:50.888Z,48.34
2022-10-05T06:10:02.770Z,48.22
2022-10-05T06:12:34.554Z,48.12
2022-10-05T06:15:13.864Z,47.92
2022-10-05T06:17:52.753Z,48.20
2022-10-05T06:20:36.948Z,48.17
2022-10-05T06:23:14.125Z,47.97
2022-10-05T06:26:10.515Z,48.05
2022-10-05T06:28:37.163Z,48.01
2022-10-05T06:31:09.485Z,48.09
2022-10-05T06:33:51.716Z,47.72
2022-10-05T06:36:18.134Z,48.04
2022-10-05T06:39:16.927Z,47.99
2022-10-05T06:41:52.072Z,47.97
2022-10-05T06:44:47.649Z,48.02
2022-10-05T06:47:26.213Z,48.05
2022-10-05T06:50:07.589Z,47.98
2022-10-05T06:52:48.863Z,47.99
2022-10-05T06:55:30.431Z,48.11
2022-10-05T06:58:21.764Z,47.84
2022-10-05T07:00:58.426Z,48.02
2022-10-05T07:03:55.088Z,47.82
2022-10-05T07:06:34.189Z,47.81
2022-10-05T07:09:00.604Z,47.90
2022-10-05T07:11:51.493Z,47.88
2022-10-05T07:14:54.557Z,47.99
2022-10-05T07:17:42.561Z,48.31
2022-10-05T07:20:30.836Z,47.93
2022-10-05T07:23:11.816Z,47.89
2022-10-05T07:25:52.357Z,47.75
2022-10-05T07:28:28.501Z,47.61
2022-10-05T07:31:03.839Z,47.53
2022-10-05T07:33:33.363Z,47.53
2022-10-05T07:36:24.550Z,47.56
2022-10-05T07:39:04.792Z,47.67
2022-10-05T07:41:44.886Z,47.48
2022-10-05T07:44:23.337Z,47.43
2022-10-05T07:47:10.746Z,47.58
2022-10-05T07:50:04.110Z,47.28
2022-10-05T07:52:42.162Z,47.41
2022-10-05T07:55:26.904Z,47.32
2022-10-05T07:58:13.090Z,47.33
2022-10-05T08:00:49.964Z,47.28
2022-10-05T08:03:22.828Z,47.18
2022-10-05T08:05:49.381Z,47.40
2022-10-05T08:08:23.720Z,47.40
2022-10-05T08:11:02.970Z,47.39
2022-10-05T08:13:38.101Z,47.25
2022-10-05T08:16:14.436Z,47.37
2022-10-05T08:19:17.520Z,47.37
2022-10-05T08:22:04.136Z,47.24
2022-10-05T08:24:59.348Z,47.41
2022-10-05T08:27:36.047Z,47.25
2022-10-05T08:30:13.093Z,47.25
2022-10-05T08:32:50.396Z,47.26
2022-10-05T08:35:51.705Z,47.33
2022-10-05T08:38:24.264Z,47.28
2022-10-05T08:41:23.297Z,47.29
2022-10-05T08:44:27.837Z,47.15
2022-10-05T08:47:09.017Z,47.28
2022-10-05T08:49:38.081Z,47.12
2022-10-05T08:52:16.669Z,47.25
2022-10-05T08:55:00.862Z,47.30
2022-10-05T08:57:33.089Z,47.15
2022-10-05T09:00:12.983Z,47.11
2022-10-05T09:03:22.070Z,47.13
2022-10-05T09:06:14.535Z,47.12
2022-10-05T09:09:08.816Z,47.25
2022-10-05T09:11:39.477Z,47.21
2022-10-05T09:14:14.351Z,47.21
2022-10-05T09:16:59.499Z,47.12
2022-10-05T09:19:34.602Z,47.16
2022-10-05T09:22:15.071Z,47.18
2022-10-05T09:25:03.837Z,47.17
2022-10-05T09:27:36.905Z,47.04
2022-10-05T09:30:22.560Z,47.18
2022-10-05T09:33:00.772Z,47.16
2022-10-05T09:35:48.693Z,47.03
2022-10-05T09:38:40.580Z,47.00
2022-10-05T09:41:10.231Z,47.04
2022-10-05T09:43:45.353Z,47.13
2022-10-05T09:46:44.870Z,47.04
2022-10-05T09:49:38.500Z,47.02
2022-10-05T09:52:19.175Z,47.06
2022-10-05T09:55:05.493Z,47.08
2022-10-05T09:57:32.037Z,46.91
2022-10-05T10:00:36.068Z,47.03
2022-10-05T10:03:27.397Z,46.97
2022-10-05T10:06:24.342Z,46.97
2022-10-05T10:09:21.557Z,46.90
2022-10-05T10:12:26.918Z,47.00
2022-10-05T10:15:32.077Z,47.08
2022-10-05T10:18:22.717Z,47.20
2022-10-05T10:21:07.811Z,47.17
2022-10-05T10:23:37.340Z,46.94
2022-10-05T10:26:25.255Z,47.00
2022-10-05T10:29:10.196Z,47.04
2022-10-05T10:31:55.941Z,47.20
2022-10-05T10:34:46.761Z,47.08
2022-10-05T10:37:47.485Z,47.11
2022-10-05T10:40:46.417Z,47.00
2022-10-05T10:43:43.556Z,47.14
2022-10-05T10:46:12.659Z,47.18
2022-10-05T10:48:54.530Z,47.24
2022-10-05T10:51:39.478Z,47.12
2022-10-05T10:54:54.022Z,47.24
2022-10-05T10:57:44.034Z,47.24
2022-10-05T11:00:36.731Z,47.24
2022-10-05T11:03:33.133Z,47.38
2022-10-05T11:06:30.270Z,47.30
2022-10-05T11:09:40.904Z,47.28
2022-10-05T11:12:20.565Z,47.31
2022-10-05T11:14:49.843Z,47.40
2022-10-05T11:18:00.172Z,47.75
2022-10-05T11:20:32.372Z,47.89
2022-10-05T11:23:38.923Z,47.95
2022-10-05T11:26:17.616Z,47.93
2022-10-05T11:29:02.543Z,48.19
2022-10-05T11:31:44.108Z,48.38
2022-10-05T11:34:32.426Z,47.92
2022-10-05T11:37:16.906Z,48.76
2022-10-05T11:39:55.412Z,49.66
2022-10-05T11:42:40.008Z,49.96
2022-10-05T11:45:24.352Z,50.30
2022-10-05T11:48:17.935Z,50.32
2022-10-05T11:51:27.829Z,50.82
2022-10-05T11:54:06.977Z,51.01
2022-10-05T11:56:42.531Z,51.60
2022-10-05T11:59:19.396Z,51.77
2022-10-05T12:01:55.895Z,52.06
2022-10-05T12:04:31.123Z,52.50
2022-10-05T12:07:55.809Z,52.42
2022-10-05T12:10:24.981Z,52.45
2022-10-05T12:13:13.237Z,52.61
2022-10-05T12:16:07.229Z,52.25
2022-10-05T12:18:34.194Z,52.23
2022-10-05T12:21:00.686Z,52.35
2022-10-05T12:23:48.964Z,52.47
2022-10-05T12:26:24.493Z,52.68
2022-10-05T12:28:55.900Z,52.76
2022-10-05T12:31:43.269Z,52.63
2022-10-05T12:34:26.637Z,52.57
2022-10-05T12:37:09.297Z,52.64
2022-10-05T12:39:53.610Z,53.52
2022-10-05T12:42:30.424Z,53.02
2022-10-05T12:45:27.175Z,53.11
2022-10-05T12:48:18.779Z,52.84
2022-10-05T12:51:00.634Z,53.12
2022-10-05T12:53:51.054Z,53.03
2022-10-05T12:56:38.195Z,53.35
2022-10-05T12:59:19.364Z,53.13
2022-10-05T13:02:11.743Z,53.00
2022-10-05T13:05:00.382Z,53.16
2022-10-05T13:07:26.777Z,53.03
2022-10-05T13:10:14.872Z,53.08
2022-10-05T13:13:03.140Z,53.33
2022-10-05T13:15:48.962Z,53.82
2022-10-05T13:18:29.770Z,53.47
2022-10-05T13:21:04.500Z,53.48
2022-10-05T13:24:13.945Z,53.58
2022-10-05T13:26:53.592Z,53.74
2022-10-05T13:29:28.186Z,53.35
2022-10-05T13:32:00.401Z,53.40
2022-10-05T13:34:26.819Z,53.46
2022-10-05T13:37:11.634Z,53.54
2022-10-05T13:39:44.181Z,53.81
2022-10-05T13:42:43.957Z,53.68
2022-10-05T13:45:15.764Z,53.32
2022-10-05T13:48:21.047Z,53.60
2022-10-05T13:51:07.424Z,53.54
2022-10-05T13:53:39.625Z,53.60
2022-10-05T13:56:16.716Z,53.29
2022-10-05T13:58:56.457Z,54.06
2022-10-05T14:01:34.729Z,53.61
2022-10-05T14:04:04.188Z,53.38
2022-10-05T14:06:32.701Z,53.49
2022-10-05T14:08:59.918Z,53.46
2022-10-05T14:11:34.870Z,53.68
2022-10-05T14:14:10.139Z,53.49
2022-10-05T14:16:49.593Z,53.71
2022-10-05T14:19:18.712Z,53.58
2022-10-05T14:21:55.117Z,53.66
2022-10-05T14:24:45.154Z,53.74
2022-10-05T14:27:21.194Z,53.87
2022-10-05T14:29:56.481Z,54.17
2022-10-05T14:32:25.133Z,53.65
2022-10-05T14:34:57.410Z,53.86
2022-10-05T14:37:26.200Z,53.71
2022-10-05T14:39:57.616Z,54.08
2022-10-05T14:42:27.050Z,54.52
2022-10-05T14:45:11.589Z,53.89
2022-10-05T14:47:49.106Z,53.71
2022-10-05T14:50:17.892Z,54.00
2022-10-05T14:53:14.059Z,53.83
2022-10-05T14:55:43.745Z,54.33
2022-10-05T14:58:32.037Z,53.88
2022-10-05T15:01:13.622Z,51.37
2022-10-05T15:04:16.722Z,52.62
2022-10-05T15:06:55.518Z,52.88
2022-10-05T15:09:49.802Z,53.35
2022-10-05T15:12:29.283Z,53.13
2022-10-05T15:15:02.924Z,53.45
2022-10-05T15:18:05.712Z,53.37
2022-10-05T15:20:46.287Z,53.41
2022-10-05T15:23:24.905Z,53.44
2022-10-05T15:26:07.798Z,53.70
2022-10-05T15:28:49.745Z,53.49
2022-10-05T15:31:40.482Z,53.70
2022-10-05T15:34:16.324Z,53.86
2022-10-05T15:36:45.277Z,53.91
2022-10-05T15:39:43.972Z,53.66
2022-10-05T15:42:14.666Z,53.64
2022-10-05T15:44:59.805Z,53.55
2022-10-05T15:47:46.065Z,53.60
2022-10-05T15:50:32.424Z,53.78
2022-10-05T15:53:19.843Z,53.72
2022-10-05T15:55:56.484Z,54.41
2022-10-05T15:58:43.332Z,54.08
2022-10-05T16:01:18.711Z,53.86
2022-10-05T16:03:50.528Z,53.95
2022-10-05T16:06:56.849Z,54.16
2022-10-05T16:09:35.874Z,54.12
2022-10-05T16:12:29.084Z,54.09
2022-10-05T16:15:17.667Z,54.08
2022-10-05T16:18:03.008Z,54.01
2022-10-05T16:20:45.800Z,54.01
2022-10-05T16:23:40.229Z,54.11
2022-10-05T16:26:15.334Z,54.19
2022-10-05T16:28:59.558Z,54.29
2022-10-05T16:31:47.823Z,54.25
2022-10-05T16:34:24.439Z,54.00
2022-10-05T16:37:05.821Z,54.57
2022-10-05T16:39:52.702Z,54.49
2022-10-05T16:42:29.607Z,54.00
2022-10-05T16:45:17.736Z,54.36
2022-10-05T16:47:56.424Z,54.47
2022-10-05T16:50:44.678Z,54.44
2022-10-05T16:53:19.376Z,54.57
2022-10-05T16:55:50.264Z,54.37
2022-10-05T16:58:31.688Z,54.51
2022-10-05T17:01:20.211Z,54.67
2022-10-05T17:04:39.085Z,56.43
2022-10-05T17:07:13.851Z,54.92
2022-10-05T17:09:55.883Z,54.68
2022-10-05T17:12:31.574Z,55.75
2022-10-05T17:15:30.320Z,55.35
2022-10-05T17:18:16.626Z,54.67
2022-10-05T17:20:50.707Z,54.74
2022-10-05T17:23:18.327Z,54.23
2022-10-05T17:26:22.444Z,54.35
2022-10-05T17:28:51.971Z,54.00
2022-10-05T17:31:21.720Z,54.07
2022-10-05T17:33:54.684Z,53.98
2022-10-05T17:36:21.419Z,53.81
2022-10-05T17:38:51.077Z,53.85
2022-10-05T17:41:28.673Z,53.62
2022-10-05T17:44:13.673Z,53.64
2022-10-05T17:46:47.983Z,53.24
2022-10-05T17:49:17.289Z,53.38
2022-10-05T17:52:02.317Z,53.08
2022-10-05T17:54:49.563Z,53.22
2022-10-05T17:57:21.135Z,53.00
2022-10-05T17:59:56.903Z,52.80
2022-10-05T18:02:39.087Z,52.80
2022-10-05T18:05:17.611Z,52.66
2022-10-05T18:07:49.705Z,52.49
2022-10-05T18:10:29.033Z,52.44
2022-10-05T18:13:01.417Z,52.36
2022-10-05T18:15:27.881Z,52.07
2022-10-05T18:17:57.184Z,52.18
2022-10-05T18:20:26.686Z,51.99
2022-10-05T18:23:14.442Z,51.83
2022-10-05T18:26:01.330Z,51.74
2022-10-05T18:28:36.259Z,51.72
2022-10-05T18:31:09.688Z,51.79
2022-10-05T18:34:15.089Z,51.67
2022-10-05T18:37:00.718Z,51.48
2022-10-05T18:39:30.258Z,51.52
2022-10-05T18:42:27.206Z,51.27
2022-10-05T18:44:59.159Z,51.56
2022-10-05T18:47:34.853Z,51.20
2022-10-05T18:50:21.476Z,51.11
2022-10-05T18:52:53.685Z,51.04
2022-10-05T18:55:33.162Z,51.17
2022-10-05T18:58:10.868Z,51.10
2022-10-05T19:00:46.374Z,51.07
2022-10-05T19:03:46.437Z,51.18
2022-10-05T19:06:33.494Z,50.99
2022-10-05T19:09:22.784Z,50.93
2022-10-05T19:12:05.255Z,50.89
2022-10-05T19:14:44.105Z,50.84
2022-10-05T19:17:40.432Z,51.03
2022-10-05T19:20:20.928Z,50.83
2022-10-05T19:23:15.264Z,50.68
2022-10-05T19:25:53.004Z,50.62
2022-10-05T19:28:41.061Z,50.86
2022-10-05T19:31:13.439Z,50.63
2022-10-05T19:34:01.573Z,50.62
2022-10-05T19:36:37.032Z,50.69
2022-10-05T19:39:21.417Z,50.63
2022-10-05T19:41:59.833Z,50.50
2022-10-05T19:44:36.380Z,50.59
2022-10-05T19:47:18.779Z,50.43
2022-10-05T19:49:56.955Z,50.52
2022-10-05T19:52:36.345Z,50.53
2022-10-05T19:55:15.298Z,50.44
2022-10-05T19:57:50.969Z,49.31
2022-10-05T20:00:31.347Z,49.67
2022-10-05T20:03:29.189Z,50.29
2022-10-05T20:06:03.288Z,50.89
2022-10-05T20:08:47.468Z,50.96
2022-10-05T20:11:16.496Z,51.04
2022-10-05T20:14:09.450Z,50.97
2022-10-05T20:16:54.810Z,50.96
2022-10-05T20:19:47.440Z,50.68
2022-10-05T20:22:39.599Z,50.58
2022-10-05T20:25:18.002Z,50.46
2022-10-05T20:27:50.137Z,50.55
2022-10-05T20:30:20.810Z,50.47
2022-10-05T20:32:52.404Z,50.46
2022-10-05T20:35:22.986Z,50.38
2022-10-05T20:37:52.311Z,50.41
2022-10-05T20:40:20.313Z,50.41
2022-10-05T20:42:47.964Z,50.34
2022-10-05T20:45:14.677Z,50.17
2022-10-05T20:47:42.156Z,50.31
2022-10-05T20:50:09.685Z,50.19
2022-10-05T20:52:37.424Z,50.04
2022-10-05T20:55:09.891Z,50.07
2022-10-05T20:57:42.252Z,50.15
2022-10-05T21:00:10.550Z,49.96
2022-10-05T21:02:38.718Z,50.05
2022-10-05T21:05:05.945Z,49.96
2022-10-05T21:07:34.240Z,49.93
2022-10-05T21:10:02.326Z,49.90
2022-10-05T21:12:29.042Z,50.00
2022-10-05T21:14:55.545Z,49.90
2022-10-05T21:17:21.981Z,50.06
2022-10-05T21:19:48.477Z,50.00
2022-10-05T21:22:14.928Z,49.95
2022-10-05T21:24:41.440Z,49.94
2022-10-05T21:27:08.610Z,49.95
2022-10-05T21:29:36.493Z,50.09
2022-10-05T21:32:08.314Z,50.10
2022-10-05T21:34:35.137Z,49.84
2022-10-05T21:37:01.669Z,49.93
2022-10-05T21:39:28.168Z,49.78
2022-10-05T21:41:54.700Z,50.02
2022-10-05T21:44:21.141Z,49.79
2022-10-05T21:46:48.448Z,49.72
2022-10-05T21:49:17.511Z,49.84
2022-10-05T21:51:46.444Z,49.66
2022-10-05T21:54:17.492Z,49.70
2022-10-05T21:56:48.324Z,49.51
2022-10-05T21:59:18.799Z,49.80
2022-10-05T22:01:45.942Z,49.65
2022-10-05T22:04:12.413Z,49.73
2022-10-05T22:06:38.909Z,49.89
2022-10-05T22:09:05.397Z,49.66
2022-10-05T22:11:32.933Z,49.67
2022-10-05T22:14:02.735Z,49.55
2022-10-05T22:16:35.275Z,49.63
2022-10-05T22:19:07.218Z,49.60
2022-10-05T22:21:41.434Z,49.70
2022-10-05T22:24:09.966Z,49.58
2022-10-05T22:26:36.592Z,49.52
2022-10-05T22:29:03.834Z,49.69
2022-10-05T22:31:30.568Z,49.54
2022-10-05T22:33:57.123Z,49.40
2022-10-05T22:36:23.794Z,49.47
2022-10-05T22:38:50.261Z,49.29
2022-10-05T22:41:18.503Z,49.58
2022-10-05T22:43:48.750Z,49.62
2022-10-05T22:46:15.358Z,49.48
2022-10-05T22:48:41.933Z,49.33
2022-10-05T22:51:08.867Z,49.50
2022-10-05T22:53:35.581Z,49.40
2022-10-05T22:56:10.665Z,49.40
2022-10-05T22:58:37.371Z,49.49
2022-10-05T23:01:06.039Z,49.25
2022-10-05T23:03:33.595Z,49.35
2022-10-05T23:06:05.300Z,49.42
2022-10-05T23:08:33.255Z,49.22
2022-10-05T23:11:03.782Z,49.34
2022-10-05T23:13:30.718Z,49.23
2022-10-05T23:15:57.543Z,49.44
2022-10-05T23:18:24.300Z,49.24
2022-10-05T23:20:55.285Z,49.26
2022-10-05T23:23:23.065Z,49.30
2022-10-05T23:25:50.237Z,49.27
2022-10-05T23:28:16.873Z,49.39
2022-10-05T23:30:43.593Z,49.41
2022-10-05T23:33:10.114Z,49.27
2022-10-05T23:35:36.569Z,49.33
2022-10-05T23:38:03.298Z,49.24
2022-10-05T23:40:29.773Z,49.42
2022-10-05T23:42:56.426Z,49.15
2022-10-05T23:45:22.873Z,49.16
2022-10-05T23:47:49.356Z,49.33
2022-10-05T23:50:16.618Z,49.09
2022-10-05T23:52:43.129Z,49.25
2022-10-05T23:55:09.955Z,49.18
2022-10-05T23:57:36.479Z,49.10
